Time;durP1;ratioP1;P1;durP2;ratioP2;P2;SDS_P1;SDS_P2;PMS_P1;PMS_P2;Temp;Humidity;BMP_temperature;BMP_pressure;BME280_temperature;BME280_humidity;BME280_pressure;Samples;Min_cycle;Max_cycle;Signal;HPM_P1;HPM_P2
2023/08/09 00:01:44;;;;;;;5.68;1.00;;;15.00;95.80;;;;;;5032263;28;20045;-80
2023/08/09 00:04:12;;;;;;;3.50;0.90;;;14.90;96.00;;;;;;5032465;28;20041;-80
2023/08/09 00:06:38;;;;;;;2.90;0.77;;;15.00;95.90;;;;;;5048329;28;20102;-80
2023/08/09 00:09:05;;;;;;;3.28;1.17;;;14.90;95.90;;;;;;5032219;28;20558;-80
2023/08/09 00:11:31;;;;;;;1.63;0.70;;;14.90;96.10;;;;;;5031650;28;20514;-80
2023/08/09 00:13:56;;;;;;;3.10;1.00;;;14.90;96.60;;;;;;5032502;28;20037;-80
2023/08/09 00:16:22;;;;;;;3.20;1.30;;;14.90;97.00;;;;;;5032619;28;20103;-80
2023/08/09 00:18:48;;;;;;;4.30;0.90;;;14.80;96.90;;;;;;5032237;28;20505;-80
2023/08/09 00:21:14;;;;;;;3.83;1.17;;;14.80;97.00;;;;;;5032575;28;20054;-80
2023/08/09 00:23:39;;;;;;;3.65;1.00;;;14.80;97.10;;;;;;5032406;28;20399;-80
2023/08/09 00:26:08;;;;;;;1.85;0.85;;;14.80;96.80;;;;;;5032489;28;20071;-80
2023/08/09 00:28:36;;;;;;;4.45;1.13;;;14.80;96.90;;;;;;5032111;28;20053;-80
2023/08/09 00:31:06;;;;;;;2.75;1.00;;;14.80;96.80;;;;;;5047348;28;20041;-80
2023/08/09 00:33:34;;;;;;;4.00;1.10;;;14.70;97.00;;;;;;5030776;28;20546;-79
2023/08/09 00:36:00;;;;;;;3.70;1.00;;;14.70;97.00;;;;;;5020815;28;20403;-80
2023/08/09 00:38:29;;;;;;;4.72;1.15;;;14.70;97.00;;;;;;5032184;28;20140;-80
2023/08/09 00:40:55;;;;;;;4.25;1.25;;;14.60;97.30;;;;;;5032381;28;20046;-80
2023/08/09 00:43:20;;;;;;;3.05;1.05;;;14.60;97.00;;;;;;5032069;28;20041;-80
2023/08/09 00:45:49;;;;;;;3.70;1.23;;;14.60;96.80;;;;;;5032321;28;20048;-80
2023/08/09 00:48:18;;;;;;;5.43;1.35;;;14.50;97.10;;;;;;5032035;28;20041;-80
2023/08/09 00:50:44;;;;;;;3.42;1.20;;;14.50;97.10;;;;;;5032300;28;20049;-80
2023/08/09 00:53:13;;;;;;;3.65;1.17;;;14.50;97.30;;;;;;5031583;28;20052;-80
2023/08/09 00:55:39;;;;;;;3.58;1.10;;;14.50;97.40;;;;;;5031979;28;20045;-80
2023/08/09 00:58:05;;;;;;;3.03;1.30;;;14.50;97.20;;;;;;5030395;28;20541;-80
2023/08/09 01:00:31;;;;;;;4.88;1.48;;;14.40;97.10;;;;;;5031649;28;20041;-80
2023/08/09 01:02:58;;;;;;;5.00;1.30;;;14.40;97.30;;;;;;5032074;28;20094;-80
2023/08/09 01:05:30;;;;;;;3.05;1.23;;;14.40;97.30;;;;;;5034512;28;20055;-80
2023/08/09 01:08:11;;;;;;;4.05;1.50;;;14.40;97.40;;;;;;5032510;28;20041;-79
2023/08/09 01:10:49;;;;;;;4.40;1.52;;;14.40;97.60;;;;;;5031362;28;20053;-79
2023/08/09 01:13:19;;;;;;;4.45;1.40;;;14.30;97.20;;;;;;5031325;28;20064;-80
2023/08/09 01:15:45;;;;;;;3.15;1.30;;;14.30;97.40;;;;;;5031973;28;20080;-80
2023/08/09 01:18:12;;;;;;;3.03;1.40;;;14.30;97.30;;;;;;5032190;28;20050;-80
2023/08/09 01:20:38;;;;;;;6.32;2.10;;;14.30;97.20;;;;;;5031938;28;20077;-80
2023/08/09 01:23:14;;;;;;;4.43;1.60;;;14.20;97.10;;;;;;5034167;28;20434;-78
2023/08/09 01:25:40;;;;;;;3.47;1.40;;;14.20;97.20;;;;;;5035500;28;20128;-80
2023/08/09 01:28:05;;;;;;;3.05;1.33;;;14.20;97.10;;;;;;5036108;28;20466;-80
2023/08/09 01:30:31;;;;;;;3.70;1.45;;;14.10;96.80;;;;;;5036678;28;20084;-80
2023/08/09 01:32:58;;;;;;;5.07;1.55;;;14.10;96.70;;;;;;5035584;28;20125;-80
2023/08/09 01:35:26;;;;;;;3.92;1.40;;;14.10;96.70;;;;;;5035647;28;20083;-80
2023/08/09 01:38:13;;;;;;;3.47;1.30;;;14.00;96.60;;;;;;5035516;28;20052;-80
2023/08/09 01:40:40;;;;;;;3.33;1.42;;;14.00;96.60;;;;;;5034547;28;20053;-80
2023/08/09 01:43:09;;;;;;;3.70;1.55;;;14.00;96.60;;;;;;5044433;28;20049;-80
2023/08/09 01:45:38;;;;;;;2.95;1.38;;;13.90;96.50;;;;;;5036105;28;20049;-80
2023/08/09 01:48:05;;;;;;;3.65;1.50;;;13.90;96.60;;;;;;5035042;28;20045;-80
2023/08/09 01:50:33;;;;;;;3.72;1.48;;;13.90;96.60;;;;;;5034225;28;20138;-79
2023/08/09 01:53:02;;;;;;;3.72;1.75;;;13.90;96.50;;;;;;5035173;28;20049;-80
2023/08/09 01:55:27;;;;;;;5.13;1.60;;;13.90;96.60;;;;;;5034611;28;20041;-79
2023/08/09 01:57:57;;;;;;;4.07;1.60;;;13.80;96.60;;;;;;5034268;28;20058;-80
2023/08/09 02:00:22;;;;;;;3.30;1.63;;;13.80;96.70;;;;;;5032985;28;20053;-80
2023/08/09 02:02:49;;;;;;;5.28;1.73;;;13.80;96.80;;;;;;5033087;28;20048;-79
2023/08/09 02:05:15;;;;;;;3.97;1.80;;;13.80;96.90;;;;;;5032873;28;20107;-80
2023/08/09 02:07:44;;;;;;;4.85;1.70;;;13.70;96.90;;;;;;5035155;28;20041;-80
2023/08/09 02:10:11;;;;;;;3.72;1.65;;;13.70;96.90;;;;;;5034308;28;20113;-80
2023/08/09 02:12:38;;;;;;;4.50;2.10;;;13.70;97.10;;;;;;5034747;28;20403;-79
2023/08/09 02:15:07;;;;;;;4.97;2.00;;;13.70;97.10;;;;;;5039465;28;20110;-79
2023/08/09 02:17:34;;;;;;;3.67;1.80;;;13.60;97.30;;;;;;5017837;28;20042;-80
2023/08/09 02:20:00;;;;;;;3.35;1.60;;;13.60;97.20;;;;;;5034627;28;20048;-80
2023/08/09 02:22:25;;;;;;;2.88;1.65;;;13.60;97.20;;;;;;5034793;28;20041;-80
2023/08/09 02:24:52;;;;;;;5.05;1.92;;;13.60;97.20;;;;;;5033079;28;20041;-79
2023/08/09 02:27:17;;;;;;;4.30;1.90;;;13.60;97.10;;;;;;5033382;28;20046;-80
2023/08/09 02:29:43;;;;;;;3.65;1.80;;;13.50;97.00;;;;;;5031778;28;20037;-80
2023/08/09 02:32:09;;;;;;;4.13;1.90;;;13.50;97.30;;;;;;5033884;28;20045;-79
2023/08/09 02:34:34;;;;;;;4.15;1.92;;;13.50;97.70;;;;;;5032887;28;20124;-80
2023/08/09 02:37:00;;;;;;;4.53;2.10;;;13.50;98.00;;;;;;5034080;28;20041;-80
2023/08/09 02:39:26;;;;;;;3.50;2.00;;;13.50;97.80;;;;;;5033654;28;20067;-80
2023/08/09 02:41:51;;;;;;;4.45;1.88;;;13.50;98.10;;;;;;5033648;28;20099;-79
2023/08/09 02:44:18;;;;;;;4.03;1.90;;;13.50;98.10;;;;;;5034155;28;20479;-80
2023/08/09 02:46:46;;;;;;;3.60;1.98;;;13.50;97.90;;;;;;5033331;28;20049;-80
2023/08/09 02:49:11;;;;;;;4.82;2.10;;;13.50;98.00;;;;;;5033419;28;20076;-80
2023/08/09 02:51:38;;;;;;;5.43;2.70;;;13.50;98.10;;;;;;5033480;28;20069;-80
2023/08/09 02:54:05;;;;;;;3.60;1.75;;;13.50;98.30;;;;;;5033734;28;20501;-80
2023/08/09 02:56:31;;;;;;;4.22;2.00;;;13.40;98.20;;;;;;5032218;28;20053;-80
2023/08/09 02:58:59;;;;;;;4.78;2.17;;;13.40;98.00;;;;;;5033683;28;20430;-80
2023/08/09 03:01:25;;;;;;;4.38;2.15;;;13.40;97.90;;;;;;5032865;28;20056;-80
2023/08/09 03:03:52;;;;;;;4.20;1.80;;;13.40;98.00;;;;;;5036898;28;20049;-80
2023/08/09 03:06:18;;;;;;;4.10;1.70;;;13.40;98.00;;;;;;5043292;28;20046;-80
2023/08/09 03:08:45;;;;;;;4.75;1.80;;;13.40;97.90;;;;;;5033953;28;20092;-80
2023/08/09 03:11:10;;;;;;;3.95;1.98;;;13.40;98.20;;;;;;5032461;28;20053;-80
2023/08/09 03:13:36;;;;;;;4.53;2.00;;;13.30;98.00;;;;;;5035720;28;20049;-80
2023/08/09 03:16:02;;;;;;;4.47;1.83;;;13.30;98.10;;;;;;5034792;28;20048;-80
2023/08/09 03:18:30;;;;;;;5.03;1.95;;;13.30;97.70;;;;;;5036901;28;20060;-80
2023/08/09 03:20:56;;;;;;;3.53;1.80;;;13.20;97.50;;;;;;5049384;28;20049;-80
2023/08/09 03:23:22;;;;;;;3.60;1.90;;;13.20;97.40;;;;;;5033369;28;20392;-80
2023/08/09 03:25:48;;;;;;;3.83;2.15;;;13.20;97.30;;;;;;5033229;28;20356;-80
2023/08/09 03:28:13;;;;;;;5.32;1.90;;;13.20;97.20;;;;;;5033403;28;20053;-80
2023/08/09 03:30:39;;;;;;;3.88;2.00;;;13.20;97.10;;;;;;5033075;28;20037;-80
2023/08/09 03:33:04;;;;;;;3.70;1.90;;;13.10;97.10;;;;;;5033654;28;20129;-80
2023/08/09 03:35:30;;;;;;;4.00;2.00;;;13.10;97.10;;;;;;5031277;28;20403;-80
2023/08/09 03:37:56;;;;;;;4.75;1.98;;;13.10;97.10;;;;;;5033465;28;20475;-80
2023/08/09 03:40:22;;;;;;;3.88;2.13;;;13.10;97.10;;;;;;5033165;28;20056;-80
2023/08/09 03:42:47;;;;;;;3.95;2.03;;;13.10;97.10;;;;;;5011820;28;20084;-80
2023/08/09 03:45:13;;;;;;;4.25;2.10;;;13.00;97.10;;;;;;5032129;28;20040;-80
2023/08/09 03:47:39;;;;;;;4.38;1.95;;;13.00;97.20;;;;;;5031549;28;20049;-80
2023/08/09 03:50:07;;;;;;;4.38;2.10;;;13.00;97.20;;;;;;5032627;28;20037;-80
2023/08/09 03:52:33;;;;;;;3.83;1.88;;;13.00;97.40;;;;;;5033337;28;20037;-80
2023/08/09 03:54:59;;;;;;;3.97;1.90;;;12.90;97.30;;;;;;5035907;28;20063;-80
2023/08/09 03:57:27;;;;;;;4.18;1.83;;;12.90;97.30;;;;;;5032655;28;20516;-80
2023/08/09 03:59:53;;;;;;;4.10;1.80;;;12.90;97.20;;;;;;5015245;28;20053;-80
2023/08/09 04:02:19;;;;;;;4.82;1.98;;;12.90;97.30;;;;;;5032960;28;20490;-80
2023/08/09 04:04:45;;;;;;;5.85;2.00;;;12.90;97.20;;;;;;5032857;28;20368;-80
2023/08/09 04:07:11;;;;;;;5.35;1.90;;;12.90;97.20;;;;;;5033076;28;20072;-80
2023/08/09 04:09:37;;;;;;;4.07;2.00;;;12.90;97.70;;;;;;5032154;28;20121;-80
2023/08/09 04:12:03;;;;;;;4.30;2.28;;;12.80;97.80;;;;;;5032716;28;20522;-80
2023/08/09 04:14:29;;;;;;;6.07;2.10;;;12.80;97.80;;;;;;5032129;28;20049;-80
2023/08/09 04:16:56;;;;;;;4.10;2.00;;;12.80;97.70;;;;;;5032631;28;20041;-80
2023/08/09 04:19:26;;;;;;;4.20;2.20;;;12.80;97.50;;;;;;5033363;28;20037;-79
2023/08/09 04:21:53;;;;;;;4.32;2.08;;;12.70;97.70;;;;;;5032918;28;20041;-80
2023/08/09 04:24:19;;;;;;;3.38;1.90;;;12.70;97.70;;;;;;5032504;28;20049;-80
2023/08/09 04:26:45;;;;;;;4.40;2.10;;;12.70;97.60;;;;;;5032174;28;20041;-78
2023/08/09 04:29:10;;;;;;;3.83;1.95;;;12.70;97.60;;;;;;5032466;28;20041;-80
2023/08/09 04:31:36;;;;;;;3.92;2.20;;;12.70;97.50;;;;;;5032606;28;20069;-80
2023/08/09 04:34:02;;;;;;;4.63;2.05;;;12.70;97.80;;;;;;5032342;28;20049;-78
2023/08/09 04:36:28;;;;;;;4.20;2.28;;;12.70;97.60;;;;;;5032550;28;20050;-80
2023/08/09 04:38:54;;;;;;;4.43;2.17;;;12.70;97.50;;;;;;5031984;28;20052;-80
2023/08/09 04:41:20;;;;;;;4.00;2.05;;;12.70;97.50;;;;;;5032237;28;20041;-80
2023/08/09 04:43:46;;;;;;;3.67;2.05;;;12.60;97.60;;;;;;5032345;28;20037;-80
2023/08/09 04:46:12;;;;;;;3.80;2.00;;;12.60;97.70;;;;;;5031322;28;20507;-79
2023/08/09 04:48:41;;;;;;;5.35;2.22;;;12.60;97.70;;;;;;5035197;28;20438;-79
2023/08/09 04:51:08;;;;;;;4.07;2.15;;;12.60;97.80;;;;;;5032023;28;20498;-79
2023/08/09 04:53:35;;;;;;;4.90;2.50;;;12.60;97.80;;;;;;5032347;28;20099;-79
2023/08/09 04:56:01;;;;;;;4.13;2.20;;;12.60;97.80;;;;;;5031620;28;20091;-81
2023/08/09 04:58:26;;;;;;;4.25;2.20;;;12.60;97.90;;;;;;5035665;28;20454;-79
2023/08/09 05:00:55;;;;;;;4.53;2.20;;;12.60;98.00;;;;;;5037820;28;20042;-79
2023/08/09 05:03:20;;;;;;;3.97;1.90;;;12.60;98.00;;;;;;5038093;28;20037;-79
2023/08/09 05:05:46;;;;;;;4.72;2.17;;;12.60;98.00;;;;;;5036289;28;20115;-79
2023/08/09 05:08:12;;;;;;;4.25;2.30;;;12.60;98.10;;;;;;5035054;28;20060;-79
2023/08/09 05:10:38;;;;;;;4.30;2.50;;;12.60;98.10;;;;;;5034596;28;20041;-79
2023/08/09 05:13:04;;;;;;;4.47;2.22;;;12.60;98.20;;;;;;5035022;28;20091;-79
2023/08/09 05:15:29;;;;;;;4.88;2.50;;;12.60;98.10;;;;;;5036082;28;20042;-79
2023/08/09 05:17:55;;;;;;;4.00;2.10;;;12.60;98.20;;;;;;5036187;28;20040;-79
2023/08/09 05:20:20;;;;;;;4.40;2.22;;;12.60;98.10;;;;;;5035333;28;20044;-79
2023/08/09 05:22:47;;;;;;;4.43;2.10;;;12.60;98.10;;;;;;5036791;28;20045;-79
2023/08/09 05:25:13;;;;;;;4.10;2.20;;;12.60;98.30;;;;;;5034598;28;20060;-79
2023/08/09 05:27:39;;;;;;;4.03;2.15;;;12.60;98.30;;;;;;5034740;28;20487;-79
2023/08/09 05:30:05;;;;;;;4.20;2.00;;;12.60;98.30;;;;;;5042155;28;20045;-79
2023/08/09 05:32:31;;;;;;;3.20;1.95;;;12.60;98.20;;;;;;5035685;28;20038;-79
2023/08/09 05:34:57;;;;;;;5.22;2.10;;;12.60;98.10;;;;;;5035282;28;20068;-79
2023/08/09 05:37:22;;;;;;;4.10;1.90;;;12.60;98.10;;;;;;5035247;28;20041;-79
2023/08/09 05:39:48;;;;;;;4.78;2.30;;;12.60;98.00;;;;;;5034749;28;20476;-79
2023/08/09 05:42:13;;;;;;;4.10;2.00;;;12.60;97.90;;;;;;5039998;28;20051;-80
2023/08/09 05:44:39;;;;;;;3.90;2.25;;;12.60;97.90;;;;;;5037639;28;20049;-80
2023/08/09 05:47:05;;;;;;;5.50;2.53;;;12.60;98.00;;;;;;5034394;28;20499;-79
2023/08/09 05:49:30;;;;;;;4.05;2.15;;;12.60;98.00;;;;;;5035003;28;20083;-79
2023/08/09 05:51:56;;;;;;;5.80;2.67;;;12.60;98.00;;;;;;5034885;28;20048;-79
2023/08/09 05:54:22;;;;;;;6.20;2.85;;;12.60;98.30;;;;;;5035014;28;20462;-79
2023/08/09 05:56:47;;;;;;;7.18;3.67;;;12.70;98.60;;;;;;5040426;28;20057;-80
2023/08/09 05:59:13;;;;;;;5.70;3.00;;;12.70;98.90;;;;;;5034753;28;20041;-80
2023/08/09 06:01:39;;;;;;;7.95;3.53;;;12.70;99.20;;;;;;5035043;28;20046;-80
2023/08/09 06:04:05;;;;;;;6.63;2.78;;;12.70;99.40;;;;;;5034846;28;20046;-80
2023/08/09 06:06:31;;;;;;;6.40;3.05;;;12.70;99.10;;;;;;5035124;28;20056;-80
2023/08/09 06:08:57;;;;;;;5.95;2.88;;;12.80;99.10;;;;;;5033888;28;20079;-80
2023/08/09 06:11:23;;;;;;;4.47;2.08;;;12.80;99.10;;;;;;5035993;28;20049;-79
2023/08/09 06:13:48;;;;;;;9.27;2.85;;;12.80;99.00;;;;;;5034506;28;20037;-79
2023/08/09 06:16:14;;;;;;;6.65;2.55;;;12.80;98.90;;;;;;5034197;28;20446;-80
2023/08/09 06:18:40;;;;;;;5.93;2.63;;;12.80;98.90;;;;;;5035554;28;20044;-80
2023/08/09 06:21:05;;;;;;;7.63;3.15;;;12.80;98.90;;;;;;5050378;28;20403;-79
2023/08/09 06:23:31;;;;;;;5.40;2.70;;;12.90;99.20;;;;;;5034805;28;20041;-79
2023/08/09 06:25:58;;;;;;;6.28;2.80;;;12.90;99.70;;;;;;5035010;28;20439;-79
2023/08/09 06:28:23;;;;;;;8.20;2.58;;;13.00;99.90;;;;;;5035310;28;20034;-79
2023/08/09 06:30:49;;;;;;;6.88;2.92;;;13.00;99.70;;;;;;5034027;28;20123;-79
2023/08/09 06:33:15;;;;;;;7.38;2.65;;;13.10;99.80;;;;;;5034644;28;20046;-79
2023/08/09 06:35:40;;;;;;;6.32;2.88;;;13.10;99.90;;;;;;5034248;28;20073;-80
2023/08/09 06:38:06;;;;;;;6.88;2.80;;;13.20;99.90;;;;;;5034231;28;20037;-79
2023/08/09 06:40:32;;;;;;;8.43;3.03;;;13.20;99.90;;;;;;5034687;28;20492;-80
2023/08/09 06:42:57;;;;;;;8.35;3.05;;;13.30;99.90;;;;;;5043816;28;20053;-80
2023/08/09 06:45:23;;;;;;;6.53;2.92;;;13.30;99.90;;;;;;5054446;28;20037;-80
2023/08/09 06:47:49;;;;;;;9.65;3.40;;;13.40;99.90;;;;;;5044823;28;20120;-80
2023/08/09 06:50:14;;;;;;;7.53;2.60;;;13.50;99.90;;;;;;5032763;28;20042;-79
2023/08/09 06:52:40;;;;;;;5.70;2.25;;;13.60;99.90;;;;;;5034258;28;20048;-79
2023/08/09 06:55:08;;;;;;;5.50;1.80;;;13.60;99.90;;;;;;5032912;28;20585;-80
2023/08/09 06:57:34;;;;;;;5.18;1.80;;;13.80;99.90;;;;;;5033676;28;20051;-80
2023/08/09 07:00:00;;;;;;;9.10;2.13;;;13.90;99.90;;;;;;5033837;28;20128;-80
2023/08/09 07:02:26;;;;;;;7.45;1.77;;;13.90;99.90;;;;;;5033846;28;20055;-79
2023/08/09 07:04:54;;;;;;;5.97;1.73;;;14.00;99.90;;;;;;5033453;28;20489;-79
2023/08/09 07:07:21;;;;;;;6.85;1.60;;;14.10;99.90;;;;;;5034744;28;20120;-80
2023/08/09 07:09:46;;;;;;;5.82;1.50;;;14.20;99.90;;;;;;5016018;28;20480;-79
2023/08/09 07:12:12;;;;;;;7.47;1.65;;;14.30;99.90;;;;;;5033878;28;20041;-80
2023/08/09 07:14:37;;;;;;;5.53;1.60;;;14.40;99.90;;;;;;5034387;28;20095;-80
2023/08/09 07:17:03;;;;;;;5.72;1.35;;;14.50;99.90;;;;;;5033323;28;20041;-80
2023/08/09 07:19:29;;;;;;;3.63;1.33;;;14.60;99.90;;;;;;5031207;28;20120;-80
2023/08/09 07:21:55;;;;;;;3.75;1.30;;;14.70;99.90;;;;;;5031009;28;20491;-79
2023/08/09 07:24:20;;;;;;;5.00;1.15;;;14.80;99.90;;;;;;5031868;28;20042;-79
2023/08/09 07:26:46;;;;;;;3.95;1.20;;;14.90;99.90;;;;;;5033132;28;20483;-79
2023/08/09 07:29:12;;;;;;;3.00;1.02;;;15.00;99.90;;;;;;5033086;28;20037;-80
2023/08/09 07:31:38;;;;;;;5.22;1.10;;;15.10;99.90;;;;;;5032942;28;20042;-80
2023/08/09 07:34:03;;;;;;;3.58;1.10;;;15.20;99.90;;;;;;5032477;28;20045;-79
2023/08/09 07:36:29;;;;;;;4.13;1.20;;;15.30;99.90;;;;;;5042622;28;20068;-79
2023/08/09 07:38:55;;;;;;;5.68;1.30;;;15.40;99.90;;;;;;5053436;28;20064;-80
2023/08/09 07:41:21;;;;;;;3.42;1.15;;;15.50;99.90;;;;;;5053421;28;20471;-79
2023/08/09 07:43:48;;;;;;;3.75;1.00;;;15.60;99.60;;;;;;5041302;28;20426;-79
2023/08/09 07:46:13;;;;;;;4.25;1.25;;;15.70;99.30;;;;;;5032660;28;20041;-80
2023/08/09 07:48:39;;;;;;;4.90;1.08;;;15.80;99.20;;;;;;5037622;28;20064;-80
2023/08/09 07:51:06;;;;;;;4.90;1.08;;;15.90;99.10;;;;;;5052965;28;20128;-80
2023/08/09 07:53:31;;;;;;;5.88;1.05;;;16.00;99.10;;;;;;5043752;28;20090;-80
2023/08/09 07:55:57;;;;;;;3.97;1.10;;;16.10;98.90;;;;;;5033017;28;20045;-80
2023/08/09 07:58:23;;;;;;;3.83;0.98;;;16.20;98.50;;;;;;5035939;28;20519;-80
2023/08/09 08:00:49;;;;;;;3.42;1.00;;;16.30;98.10;;;;;;5032779;28;20049;-80
2023/08/09 08:03:15;;;;;;;3.15;0.90;;;16.40;97.70;;;;;;5034112;28;20045;-80
2023/08/09 08:05:40;;;;;;;3.33;1.10;;;16.50;97.30;;;;;;5034043;28;20045;-79
2023/08/09 08:08:06;;;;;;;4.45;1.10;;;16.60;97.10;;;;;;5049398;28;20140;-79
2023/08/09 08:10:32;;;;;;;4.82;0.95;;;16.70;97.00;;;;;;5031675;28;20045;-80
2023/08/09 08:12:58;;;;;;;4.72;0.80;;;16.80;96.70;;;;;;5032639;28;20129;-79
2023/08/09 08:15:24;;;;;;;3.78;0.90;;;16.90;96.30;;;;;;5035973;28;20418;-79
2023/08/09 08:17:51;;;;;;;4.15;1.10;;;17.00;96.40;;;;;;5032284;28;20053;-79
2023/08/09 08:20:19;;;;;;;3.13;0.98;;;17.10;96.10;;;;;;5032231;28;20052;-79
2023/08/09 08:22:47;;;;;;;6.25;1.02;;;17.20;95.90;;;;;;5033018;28;20052;-80
2023/08/09 08:25:14;;;;;;;5.55;1.23;;;17.30;95.60;;;;;;5032166;28;20041;-79
2023/08/09 08:27:45;;;;;;;4.35;1.10;;;17.30;95.20;;;;;;5032589;28;20053;-79
2023/08/09 08:30:20;;;;;;;5.63;1.00;;;17.40;95.20;;;;;;5025206;28;20041;-79
2023/08/09 08:32:47;;;;;;;5.07;0.98;;;17.50;94.60;;;;;;5024307;28;20053;-79
2023/08/09 08:35:13;;;;;;;2.63;0.70;;;17.60;93.80;;;;;;5015579;28;20440;-80
2023/08/09 08:37:40;;;;;;;3.40;1.10;;;17.70;93.60;;;;;;5026520;28;20044;-79
2023/08/09 08:40:25;;;;;;;3.30;0.88;;;17.70;92.60;;;;;;5024159;28;20050;-80
2023/08/09 08:42:51;;;;;;;3.22;0.80;;;17.80;92.60;;;;;;5036518;28;20053;-79
2023/08/09 08:45:19;;;;;;;18.05;1.85;;;17.90;92.90;;;;;;5031900;28;20116;-79
2023/08/09 08:47:49;;;;;;;4.15;1.13;;;18.00;92.80;;;;;;5016511;28;20459;-80
2023/08/09 08:50:17;;;;;;;3.22;1.13;;;18.10;92.70;;;;;;5024371;28;20490;-80
2023/08/09 08:52:45;;;;;;;3.13;0.60;;;18.10;92.60;;;;;;5021359;28;20061;-78
2023/08/09 08:55:15;;;;;;;3.83;1.00;;;18.20;91.90;;;;;;5037086;28;20033;-80
2023/08/09 08:57:42;;;;;;;2.55;0.82;;;18.20;92.10;;;;;;5016515;28;20061;-80
2023/08/09 09:00:16;;;;;;;5.65;0.90;;;18.30;91.90;;;;;;5036545;28;20048;-79
2023/08/09 09:02:44;;;;;;;;;;;18.30;91.90;;;;;;5051223;28;20063;-79
2023/08/09 09:05:12;;;;;;;4.20;0.75;;;18.30;91.80;;;;;;5017886;28;20399;-79
2023/08/09 09:07:39;;;;;;;4.13;1.00;;;18.40;92.40;;;;;;5025831;28;20049;-79
2023/08/09 09:10:09;;;;;;;4.28;1.10;;;18.50;91.50;;;;;;5032073;28;20471;-79
2023/08/09 09:12:37;;;;;;;3.85;0.80;;;18.50;91.20;;;;;;5025328;28;20565;-79
2023/08/09 09:15:05;;;;;;;3.83;0.80;;;18.60;90.90;;;;;;5035315;28;20037;-79
2023/08/09 09:17:37;;;;;;;5.78;0.80;;;18.70;90.90;;;;;;5023703;28;20515;-79
2023/08/09 09:20:12;;;;;;;3.38;0.90;;;18.70;91.10;;;;;;5035286;28;20051;-79
2023/08/09 09:22:39;;;;;;;5.07;0.90;;;18.70;90.50;;;;;;5032235;28;20045;-79
2023/08/09 09:25:10;;;;;;;4.35;1.00;;;18.80;91.40;;;;;;5040933;28;20060;-78
2023/08/09 09:27:36;;;;;;;3.65;1.10;;;18.80;90.50;;;;;;5034656;28;20049;-79
2023/08/09 09:30:11;;;;;;;5.55;0.80;;;18.90;90.00;;;;;;5035807;28;20055;-80
2023/08/09 09:32:40;;;;;;;3.35;0.85;;;18.90;90.30;;;;;;5034768;28;20049;-79
2023/08/09 09:35:10;;;;;;;5.55;0.90;;;18.90;90.90;;;;;;5035771;28;20128;-79
2023/08/09 09:37:36;;;;;;;4.20;1.00;;;19.00;91.70;;;;;;5035551;28;20041;-79
2023/08/09 09:40:01;;;;;;;5.15;0.70;;;19.10;91.40;;;;;;5035682;28;20046;-79
2023/08/09 09:42:33;;;;;;;2.90;0.80;;;19.10;90.60;;;;;;5034952;28;20055;-79
2023/08/09 09:45:04;;;;;;;3.92;0.98;;;19.20;90.10;;;;;;5035804;28;20045;-79
2023/08/09 09:47:32;;;;;;;4.25;0.90;;;19.30;91.10;;;;;;5035694;28;20053;-79
2023/08/09 09:49:58;;;;;;;2.72;0.75;;;19.40;89.80;;;;;;5035583;28;20087;-79
2023/08/09 09:52:24;;;;;;;5.25;0.93;;;19.40;89.20;;;;;;5035611;28;20487;-79
2023/08/09 09:54:53;;;;;;;4.50;0.82;;;19.50;89.00;;;;;;5035281;28;20515;-79
2023/08/09 09:57:18;;;;;;;3.22;0.90;;;19.50;89.00;;;;;;5034207;28;20575;-79
2023/08/09 09:59:44;;;;;;;3.03;0.98;;;19.50;86.80;;;;;;5052930;28;20148;-80
2023/08/09 10:02:10;;;;;;;4.63;1.10;;;19.60;86.60;;;;;;5019934;28;20072;-80
2023/08/09 10:04:37;;;;;;;5.35;1.00;;;19.60;84.90;;;;;;5035032;28;20431;-80
2023/08/09 10:07:03;;;;;;;3.92;1.70;;;19.60;86.90;;;;;;5034866;28;20052;-80
2023/08/09 10:09:30;;;;;;;4.38;1.20;;;19.70;87.10;;;;;;5034230;28;20037;-79
2023/08/09 10:11:59;;;;;;;4.55;1.00;;;19.70;88.00;;;;;;5033326;28;20049;-79
2023/08/09 10:14:28;;;;;;;3.28;1.00;;;19.80;86.90;;;;;;5035060;28;20043;-80
2023/08/09 10:16:54;;;;;;;4.18;1.00;;;19.80;85.20;;;;;;5034251;28;20045;-80
2023/08/09 10:19:23;;;;;;;3.55;0.90;;;19.90;83.90;;;;;;5032973;28;20045;-79
2023/08/09 10:21:52;;;;;;;3.55;1.00;;;20.00;84.50;;;;;;5027855;28;20040;-80
2023/08/09 10:24:18;;;;;;;3.05;0.80;;;20.00;87.50;;;;;;5011832;28;20107;-80
2023/08/09 10:26:49;;;;;;;4.40;0.90;;;20.00;87.90;;;;;;5016619;28;20041;-80
2023/08/09 10:29:23;;;;;;;3.53;0.95;;;20.00;87.00;;;;;;5024111;28;20053;-81
2023/08/09 10:32:00;;;;;;;2.92;0.80;;;20.10;85.10;;;;;;5012777;28;20041;-80
2023/08/09 10:34:36;;;;;;;2.95;0.75;;;20.20;85.80;;;;;;5013834;28;20046;-80
2023/08/09 10:37:03;;;;;;;2.53;0.70;;;20.30;86.70;;;;;;5020905;28;20068;-81
2023/08/09 10:39:30;;;;;;;4.53;0.88;;;20.30;86.00;;;;;;5031336;28;20133;-81
2023/08/09 10:42:07;;;;;;;3.42;1.05;;;20.40;84.00;;;;;;5013748;28;20081;-82
2023/08/09 10:44:40;;;;;;;3.45;0.85;;;20.40;84.10;;;;;;5019935;28;20053;-79
2023/08/09 10:47:28;;;;;;;2.10;0.70;;;20.50;82.80;;;;;;5026092;28;20038;-79
2023/08/09 10:49:59;;;;;;;4.53;0.98;;;20.60;82.30;;;;;;5027576;28;20041;-78
2023/08/09 10:52:32;;;;;;;13.00;3.00;;;20.60;81.40;;;;;;5029666;28;20042;-80
2023/08/09 10:55:19;;;;;;;5.47;1.60;;;20.70;84.20;;;;;;5021121;28;20052;-80
2023/08/09 10:57:48;;;;;;;4.10;1.38;;;20.80;82.40;;;;;;5013485;28;20053;-79
2023/08/09 11:00:15;;;;;;;4.82;0.95;;;20.80;84.60;;;;;;5015150;28;20046;-80
2023/08/09 11:02:56;;;;;;;5.60;1.90;;;21.00;82.80;;;;;;5036926;28;20396;-80
2023/08/09 11:05:22;;;;;;;5.20;1.10;;;21.00;79.40;;;;;;5010154;28;20042;-80
2023/08/09 11:07:53;;;;;;;5.32;1.10;;;21.00;81.10;;;;;;5018487;28;20038;-80
2023/08/09 11:10:33;;;;;;;4.95;1.23;;;21.10;79.10;;;;;;5033805;28;20049;-80
2023/08/09 11:13:04;;;;;;;4.45;1.00;;;21.10;82.90;;;;;;5020001;28;20049;-80
2023/08/09 11:15:34;;;;;;;4.57;1.38;;;21.10;79.60;;;;;;5031407;28;20122;-80
2023/08/09 11:18:04;;;;;;;3.90;1.13;;;21.10;82.40;;;;;;5040250;28;20038;-79
2023/08/09 11:20:30;;;;;;;4.03;0.90;;;21.10;82.60;;;;;;5028196;28;20042;-79
2023/08/09 11:22:57;;;;;;;3.75;1.02;;;21.10;83.00;;;;;;5021874;28;20048;-79
2023/08/09 11:25:26;;;;;;;4.05;0.95;;;21.10;83.90;;;;;;5033868;28;20050;-79
2023/08/09 11:27:57;;;;;;;2.90;0.90;;;21.10;81.40;;;;;;5029578;28;20048;-79
2023/08/09 11:30:24;;;;;;;5.72;0.95;;;21.20;82.20;;;;;;5042617;28;20084;-80
2023/08/09 11:33:01;;;;;;;3.35;0.70;;;21.20;79.40;;;;;;5029463;28;20484;-80
2023/08/09 11:35:39;;;;;;;3.53;0.93;;;21.20;77.60;;;;;;5026706;28;20491;-81
2023/08/09 11:38:09;;;;;;;4.60;1.10;;;21.20;81.30;;;;;;5028348;28;20133;-80
2023/08/09 11:40:40;;;;;;;4.25;1.10;;;21.20;81.00;;;;;;5029127;28;20049;-80
2023/08/09 11:43:10;;;;;;;3.53;1.00;;;21.30;82.10;;;;;;5027826;28;20064;-80
2023/08/09 11:45:49;;;;;;;4.75;1.20;;;21.30;82.40;;;;;;5026437;28;20084;-79
2023/08/09 11:48:25;;;;;;;4.60;1.10;;;21.40;81.40;;;;;;5027052;28;20492;-79
2023/08/09 11:51:02;;;;;;;2.83;0.90;;;21.40;84.90;;;;;;5018221;28;20085;-80
2023/08/09 11:53:28;;;;;;;4.13;1.13;;;21.50;81.40;;;;;;5029747;28;20045;-79
2023/08/09 11:56:01;;;;;;;3.45;1.00;;;21.50;83.90;;;;;;5028073;28;20128;-79
2023/08/09 11:58:27;;;;;;;4.40;1.02;;;21.50;81.70;;;;;;5027879;28;20058;-79
2023/08/09 12:00:53;;;;;;;2.72;0.90;;;21.60;82.90;;;;;;5028503;28;20040;-79
2023/08/09 12:03:22;;;;;;;4.80;1.10;;;21.60;82.00;;;;;;5031499;28;20049;-79
2023/08/09 12:05:52;;;;;;;3.67;1.13;;;21.60;82.20;;;;;;5027585;28;20046;-79
2023/08/09 12:08:34;;;;;;;3.50;1.10;;;21.70;82.00;;;;;;5018218;28;20034;-79
2023/08/09 12:11:00;;;;;;;4.05;1.27;;;21.70;85.20;;;;;;5036256;28;20041;-79
2023/08/09 12:13:26;;;;;;;4.38;1.27;;;21.80;87.00;;;;;;5030485;28;20038;-79
2023/08/09 12:15:51;;;;;;;3.67;1.10;;;21.80;88.40;;;;;;5038265;28;20049;-79
2023/08/09 12:18:17;;;;;;;2.97;1.10;;;21.80;85.30;;;;;;5030899;28;20049;-80
2023/08/09 12:20:42;;;;;;;6.47;1.08;;;21.90;84.20;;;;;;5017787;28;20496;-80
2023/08/09 12:23:08;;;;;;;3.83;1.10;;;21.90;81.70;;;;;;5026331;28;20550;-80
2023/08/09 12:25:37;;;;;;;4.40;1.20;;;21.90;80.30;;;;;;5027221;28;20042;-80
2023/08/09 12:28:03;;;;;;;3.20;1.10;;;21.90;81.30;;;;;;5030663;28;20049;-80
2023/08/09 12:30:29;;;;;;;7.55;1.42;;;21.90;83.80;;;;;;5034832;28;20045;-80
2023/08/09 12:32:55;;;;;;;5.38;1.20;;;22.00;82.00;;;;;;5015362;28;20136;-83
2023/08/09 12:35:21;;;;;;;4.30;1.23;;;22.00;85.70;;;;;;5023988;28;20053;-83
2023/08/09 12:37:46;;;;;;;4.97;1.13;;;22.10;85.10;;;;;;5029806;28;20053;-83
2023/08/09 12:40:13;;;;;;;7.20;1.30;;;22.20;86.10;;;;;;5021943;28;20171;-84
2023/08/09 12:42:38;;;;;;;5.68;1.15;;;22.20;85.60;;;;;;5018666;28;20117;-84
2023/08/09 12:45:05;;;;;;;6.15;1.20;;;22.20;85.70;;;;;;5032742;28;20209;-84
2023/08/09 12:47:31;;;;;;;3.45;1.10;;;22.30;84.90;;;;;;5048417;28;20046;-82
2023/08/09 12:49:57;;;;;;;3.97;1.13;;;22.30;87.50;;;;;;5027938;28;20072;-82